Time;durP1;ratioP1;P1;durP2;ratioP2;P2;SDS_P1;SDS_P2;PMS_P1;PMS_P2;Temp;Humidity;BMP_temperature;BMP_pressure;BME280_temperature;BME280_humidity;BME280_pressure;Samples;Min_cycle;Max_cycle;Signal;HPM_P1;HPM_P2
2021/09/09 00:00:40;;;;;;;11.53;10.53;;;;;23.00;100113.00;;;;2070654;28;20222;-56
2021/09/09 00:01:40;;;;;;;12.40;11.23;;;;;23.00;100106.00;;;;2064677;28;20232;-57
2021/09/09 00:02:41;;;;;;;9.83;9.13;;;;;23.00;100105.00;;;;2070407;28;20211;-56
2021/09/09 00:03:41;;;;;;;10.97;9.97;;;;;23.00;100110.00;;;;2071667;28;20210;-58
2021/09/09 00:04:41;;;;;;;10.60;9.80;;;;;23.00;100113.00;;;;2070731;28;20221;-56
2021/09/09 00:05:44;;;;;;;11.83;10.83;;;;;23.00;100101.00;;;;2070557;28;20218;-56
2021/09/09 00:06:44;;;;;;;11.45;10.45;;;;;23.00;100105.00;;;;2068443;28;20695;-56
2021/09/09 00:07:45;;;;;;;10.90;10.00;;;;;23.00;100108.00;;;;2062739;28;20215;-56
2021/09/09 00:08:45;;;;;;;11.23;10.30;;;;;23.00;100101.00;;;;2062166;28;20317;-56
2021/09/09 00:09:45;;;;;;;10.63;9.83;;;;;23.00;100123.00;;;;2062633;28;20230;-56
2021/09/09 00:10:46;;;;;;;11.20;10.30;;;;;23.00;100104.00;;;;2062666;28;20223;-56
2021/09/09 00:11:46;;;;;;;10.73;9.83;;;;;23.00;100104.00;;;;2063047;28;20219;-57
2021/09/09 00:12:46;;;;;;;11.57;10.53;;;;;23.00;100105.00;;;;2062989;28;20215;-57
2021/09/09 00:13:47;;;;;;;12.63;11.53;;;;;23.00;100101.00;;;;2062965;28;20214;-57
2021/09/09 00:14:47;;;;;;;11.80;10.80;;;;;23.00;100102.00;;;;2062982;28;20305;-56
2021/09/09 00:15:48;;;;;;;10.30;9.40;;;;;23.00;100102.00;;;;2062824;28;20211;-56
2021/09/09 00:16:48;;;;;;;11.13;9.97;;;;;23.00;100106.00;;;;2066408;28;20218;-55
2021/09/09 00:17:48;;;;;;;11.40;10.40;;;;;23.00;100096.00;;;;2066809;28;20219;-56
2021/09/09 00:18:49;;;;;;;11.97;11.00;;;;;23.00;100100.00;;;;2061444;28;20297;-56
2021/09/09 00:19:49;;;;;;;10.93;9.90;;;;;23.00;100096.00;;;;2067416;28;20276;-55
2021/09/09 00:20:50;;;;;;;10.70;9.77;;;;;23.00;100094.00;;;;2071014;28;20618;-55
2021/09/09 00:21:50;;;;;;;10.10;9.30;;;;;23.10;100097.00;;;;2070550;28;20322;-56
2021/09/09 00:22:50;;;;;;;10.40;9.50;;;;;23.00;100093.00;;;;2071173;28;20268;-54
2021/09/09 00:23:51;;;;;;;10.90;9.90;;;;;23.00;100097.00;;;;2071119;28;20564;-55
2021/09/09 00:24:51;;;;;;;10.80;9.80;;;;;23.00;100086.00;;;;2070825;28;20301;-55
2021/09/09 00:25:51;;;;;;;10.20;9.30;;;;;23.00;100093.00;;;;2071096;28;20264;-55
2021/09/09 00:26:52;;;;;;;11.03;10.03;;;;;23.00;100094.00;;;;2070540;28;20256;-55
2021/09/09 00:27:52;;;;;;;10.00;9.10;;;;;23.00;100084.00;;;;2070999;28;20622;-56
2021/09/09 00:28:52;;;;;;;10.57;9.67;;;;;23.00;100090.00;;;;2069926;28;20218;-56
2021/09/09 00:29:53;;;;;;;11.70;10.67;;;;;23.00;100086.00;;;;2070986;28;20710;-55
2021/09/09 00:30:53;;;;;;;10.63;9.67;;;;;23.00;100084.00;;;;2065278;28;20323;-55
2021/09/09 00:31:53;;;;;;;11.23;10.23;;;;;23.00;100079.00;;;;2062015;28;20219;-55
2021/09/09 00:32:54;;;;;;;11.33;10.33;;;;;23.00;100083.00;;;;2062220;28;20222;-55
2021/09/09 00:33:54;;;;;;;10.03;9.13;;;;;23.00;100083.00;;;;2069511;28;20292;-55
2021/09/09 00:34:54;;;;;;;11.57;10.57;;;;;23.00;100084.00;;;;2068820;28;20214;-57
2021/09/09 00:35:55;;;;;;;10.50;9.57;;;;;23.00;100080.00;;;;2066393;28;20210;-56
2021/09/09 00:36:55;;;;;;;10.10;9.30;;;;;23.00;100078.00;;;;2062321;28;20237;-56
2021/09/09 00:37:55;;;;;;;11.30;10.27;;;;;23.00;100081.00;;;;2063440;28;20230;-56
2021/09/09 00:38:56;;;;;;;11.33;10.23;;;;;23.00;100074.00;;;;2065517;28;20211;-55
2021/09/09 00:39:56;;;;;;;9.73;8.93;;;;;23.00;100093.00;;;;2060490;28;20222;-55
2021/09/09 00:40:56;;;;;;;10.37;9.50;;;;;23.00;100075.00;;;;2062966;28;20321;-55
2021/09/09 00:41:57;;;;;;;11.70;10.63;;;;;23.00;100076.00;;;;2062506;28;20714;-55
2021/09/09 00:42:57;;;;;;;10.70;9.70;;;;;23.00;100073.00;;;;2069818;28;20221;-55
2021/09/09 00:43:58;;;;;;;10.60;9.60;;;;;23.00;100092.00;;;;2070803;28;20415;-55
2021/09/09 00:44:58;;;;;;;11.00;10.00;;;;;23.00;100068.00;;;;2070901;28;20213;-56
2021/09/09 00:45:58;;;;;;;10.57;9.50;;;;;23.00;100068.00;;;;2070423;28;20772;-56
2021/09/09 00:47:02;;;;;;;10.93;10.00;;;;;23.00;100067.00;;;;2070677;28;20206;-55
2021/09/09 00:48:03;;;;;;;10.73;9.82;;;;;23.00;100066.00;;;;2068637;28;20226;-56
2021/09/09 00:49:03;;;;;;;10.33;9.50;;;;;23.00;100063.00;;;;2063597;28;20298;-56
2021/09/09 00:50:04;;;;;;;11.10;10.10;;;;;23.00;100063.00;;;;2070661;28;20297;-55
2021/09/09 00:51:04;;;;;;;11.10;10.20;;;;;23.00;100055.00;;;;2070919;28;20276;-55
2021/09/09 00:52:05;;;;;;;11.13;10.13;;;;;23.00;100056.00;;;;2070759;28;20629;-55
2021/09/09 00:53:05;;;;;;;10.60;9.70;;;;;23.00;100060.00;;;;2070883;28;20226;-56
2021/09/09 00:54:06;;;;;;;10.80;9.90;;;;;23.00;100056.00;;;;2061841;28;20210;-55
2021/09/09 00:55:06;;;;;;;10.60;9.70;;;;;23.00;100052.00;;;;2058211;28;20302;-56
2021/09/09 00:56:07;;;;;;;11.23;10.30;;;;;23.00;100050.00;;;;2070756;28;20302;-56
2021/09/09 00:57:08;;;;;;;9.90;9.10;;;;;23.00;100040.00;;;;2070857;28;20446;-56
2021/09/09 00:58:08;;;;;;;10.55;9.75;;;;;23.00;100056.00;;;;2067929;28;20223;-55
2021/09/09 00:59:09;;;;;;;10.63;9.73;;;;;23.00;100058.00;;;;2067742;28;20261;-55
2021/09/09 01:00:10;;;;;;;10.70;9.80;;;;;23.00;100055.00;;;;2069989;28;20214;-56
2021/09/09 01:01:10;;;;;;;10.75;9.90;;;;;23.00;100044.00;;;;2065745;28;20219;-55
2021/09/09 01:02:11;;;;;;;11.17;10.27;;;;;23.00;100047.00;;;;2061361;28;20598;-55
2021/09/09 01:03:11;;;;;;;10.50;9.60;;;;;23.00;100046.00;;;;2062633;28;20222;-56
2021/09/09 01:04:13;;;;;;;10.90;10.00;;;;;23.00;100049.00;;;;2062778;28;20215;-55
2021/09/09 01:05:13;;;;;;;10.48;9.65;;;;;23.00;100048.00;;;;2062406;28;20217;-55
2021/09/09 01:06:13;;;;;;;12.20;11.10;;;;;23.00;100045.00;;;;2065381;28;20221;-56
2021/09/09 01:07:14;;;;;;;10.40;9.60;;;;;23.00;100049.00;;;;2063605;28;20214;-55
2021/09/09 01:08:14;;;;;;;10.37;9.53;;;;;23.00;100050.00;;;;2064635;28;20218;-55
2021/09/09 01:09:14;;;;;;;11.43;10.33;;;;;23.00;100045.00;;;;2061295;28;20218;-56
2021/09/09 01:10:15;;;;;;;11.80;10.80;;;;;23.00;100046.00;;;;2062616;28;20261;-55
2021/09/09 01:11:15;;;;;;;10.60;9.70;;;;;23.00;100051.00;;;;2067027;28;20236;-55
2021/09/09 01:12:16;;;;;;;11.10;10.20;;;;;23.00;100044.00;;;;2068388;28;20222;-55
2021/09/09 01:13:16;;;;;;;11.53;10.43;;;;;23.00;100040.00;;;;2062642;28;20301;-56
2021/09/09 01:14:17;;;;;;;10.20;9.30;;;;;23.00;99982.00;;;;2062588;28;20238;-56
2021/09/09 01:15:17;;;;;;;11.47;10.37;;;;;23.00;100038.00;;;;2054214;28;20225;-55
2021/09/09 01:16:18;;;;;;;11.30;10.30;;;;;23.00;100032.00;;;;2062048;28;20313;-55
2021/09/09 01:17:18;;;;;;;10.27;9.43;;;;;23.00;100027.00;;;;2062597;28;20851;-56
2021/09/09 01:18:19;;;;;;;10.67;9.77;;;;;23.00;100036.00;;;;2062429;28;20223;-56
2021/09/09 01:19:19;;;;;;;11.50;10.50;;;;;23.00;100036.00;;;;2061372;28;20222;-55
2021/09/09 01:20:19;;;;;;;10.60;9.80;;;;;23.00;100038.00;;;;2062392;28;20222;-55
2021/09/09 01:21:20;;;;;;;10.43;9.63;;;;;23.00;100040.00;;;;2062490;28;20265;-55
2021/09/09 01:22:20;;;;;;;10.07;9.30;;;;;23.00;100037.00;;;;2061806;28;20230;-55
2021/09/09 01:23:21;;;;;;;10.53;9.63;;;;;23.00;100029.00;;;;2061893;28;20294;-55
2021/09/09 01:24:21;;;;;;;10.97;9.97;;;;;23.00;100030.00;;;;2061380;28;20580;-55
2021/09/09 01:25:22;;;;;;;10.57;9.50;;;;;23.00;100027.00;;;;2061591;28;20647;-57
2021/09/09 01:26:23;;;;;;;11.07;10.17;;;;;23.00;100028.00;;;;2062562;28;20550;-57
2021/09/09 01:27:23;;;;;;;11.15;10.15;;;;;23.00;100022.00;;;;2062472;28;20206;-56
2021/09/09 01:28:23;;;;;;;10.40;9.60;;;;;23.00;100025.00;;;;2062385;28;20703;-56
2021/09/09 01:29:26;;;;;;;10.00;9.10;;;;;23.00;100017.00;;;;2061224;28;20638;-55
2021/09/09 01:30:26;;;;;;;10.65;9.75;;;;;23.00;100020.00;;;;2062533;28;20707;-55
2021/09/09 01:31:27;;;;;;;12.53;10.20;;;;;23.00;100018.00;;;;2062356;28;20373;-56
2021/09/09 01:32:27;;;;;;;9.67;8.87;;;;;23.00;100026.00;;;;2062183;28;20258;-56
2021/09/09 01:33:27;;;;;;;9.83;8.97;;;;;23.00;100022.00;;;;2062569;28;20826;-55
2021/09/09 01:34:28;;;;;;;11.03;10.10;;;;;23.00;100020.00;;;;2062513;28;20622;-56
2021/09/09 01:35:28;;;;;;;10.90;9.90;;;;;23.00;100021.00;;;;2062437;28;20198;-56
2021/09/09 01:36:29;;;;;;;10.50;9.60;;;;;23.00;100027.00;;;;2062545;28;20262;-56
2021/09/09 01:37:29;;;;;;;10.40;9.60;;;;;23.00;100011.00;;;;2062002;28;20203;-55
2021/09/09 01:38:29;;;;;;;10.50;9.70;;;;;23.00;100023.00;;;;2062433;28;20209;-56
2021/09/09 01:39:30;;;;;;;9.83;9.03;;;;;23.00;100019.00;;;;2060959;28;20696;-55
2021/09/09 01:40:31;;;;;;;10.77;9.87;;;;;23.00;100019.00;;;;2062580;28;20210;-55
2021/09/09 01:41:31;;;;;;;11.10;10.20;;;;;23.00;100011.00;;;;2069783;28;20749;-55
2021/09/09 01:42:31;;;;;;;10.87;10.00;;;;;23.00;100020.00;;;;2070597;28;20449;-55
2021/09/09 01:43:32;;;;;;;10.20;9.40;;;;;23.00;100014.00;;;;2070430;28;20730;-55
2021/09/09 01:44:32;;;;;;;10.97;10.07;;;;;23.00;100018.00;;;;2070512;28;20225;-56
2021/09/09 01:45:32;;;;;;;9.83;9.03;;;;;23.00;100010.00;;;;2070603;28;20206;-55
2021/09/09 01:46:33;;;;;;;10.50;9.70;;;;;23.00;100013.00;;;;2070706;28;20571;-56
2021/09/09 01:47:33;;;;;;;10.17;9.37;;;;;23.00;100012.00;;;;2070583;28;20297;-56
2021/09/09 01:48:33;;;;;;;10.03;9.23;;;;;23.00;100012.00;;;;2064144;28;20211;-55
2021/09/09 01:49:34;;;;;;;11.07;10.17;;;;;23.00;100010.00;;;;2061292;28;20219;-55
2021/09/09 01:50:35;;;;;;;11.43;10.43;;;;;22.90;100009.00;;;;2062285;28;20219;-55
2021/09/09 01:51:35;;;;;;;9.75;8.95;;;;;23.00;100006.00;;;;2062226;28;20211;-56
2021/09/09 01:52:36;;;;;;;10.30;9.40;;;;;22.90;100004.00;;;;2063196;28;20951;-56
2021/09/09 01:53:36;;;;;;;10.90;9.90;;;;;22.90;100004.00;;;;2070174;28;20222;-55
2021/09/09 01:54:36;;;;;;;9.57;8.87;;;;;22.90;99999.00;;;;2070516;28;20652;-56
2021/09/09 01:55:37;;;;;;;10.50;9.70;;;;;23.00;100008.00;;;;2070369;28;20237;-56
2021/09/09 01:56:37;;;;;;;11.70;10.70;;;;;22.80;99999.00;;;;2064462;28;20211;-55
2021/09/09 01:57:38;;;;;;;10.13;9.23;;;;;23.00;99994.00;;;;2063151;28;20264;-56
2021/09/09 01:58:38;;;;;;;11.87;10.87;;;;;22.90;100006.00;;;;2064048;28;20211;-55
2021/09/09 01:59:38;;;;;;;10.70;9.80;;;;;22.90;100005.00;;;;2062608;28;20218;-56
2021/09/09 02:00:38;;;;;;;10.37;9.57;;;;;22.90;100008.00;;;;2063715;28;20218;-56
2021/09/09 02:01:39;;;;;;;11.30;10.30;;;;;22.90;99997.00;;;;2063842;28;20226;-55
2021/09/09 02:02:40;;;;;;;11.80;10.70;;;;;22.90;100002.00;;;;2064138;28;20268;-56
2021/09/09 02:03:40;;;;;;;10.77;9.88;;;;;22.90;100006.00;;;;2063566;28;20730;-56
2021/09/09 02:04:41;;;;;;;10.23;9.23;;;;;22.90;99997.00;;;;2064184;28;20218;-55
2021/09/09 02:05:41;;;;;;;10.53;9.73;;;;;22.90;99989.00;;;;2070041;28;20222;-56
2021/09/09 02:06:42;;;;;;;10.60;9.70;;;;;22.90;99993.00;;;;2069809;28;20702;-56
2021/09/09 02:07:42;;;;;;;10.67;9.87;;;;;22.90;99998.00;;;;2063866;28;20222;-56
2021/09/09 02:08:42;;;;;;;10.07;9.23;;;;;22.90;100000.00;;;;2062763;28;20234;-56
2021/09/09 02:09:43;;;;;;;9.93;9.03;;;;;22.90;99995.00;;;;2059460;28;20242;-56
2021/09/09 02:10:43;;;;;;;10.40;9.60;;;;;22.90;99992.00;;;;2064023;28;20699;-55
2021/09/09 02:11:43;;;;;;;10.73;9.87;;;;;22.90;99984.00;;;;2069101;28;20562;-56
2021/09/09 02:12:44;;;;;;;10.63;9.73;;;;;22.90;99989.00;;;;2072048;28;20202;-56
2021/09/09 02:13:44;;;;;;;10.37;9.47;;;;;23.00;99988.00;;;;2072059;28;20214;-56
2021/09/09 02:14:44;;;;;;;10.63;9.73;;;;;22.90;99988.00;;;;2071969;28;20206;-55
2021/09/09 02:15:45;;;;;;;10.53;9.70;;;;;22.90;99982.00;;;;2064846;28;20237;-56
2021/09/09 02:16:45;;;;;;;10.70;9.80;;;;;22.90;99982.00;;;;2070899;28;20229;-55
2021/09/09 02:17:46;;;;;;;10.77;9.93;;;;;22.90;99989.00;;;;2071963;28;20202;-56
2021/09/09 02:18:46;;;;;;;10.63;9.83;;;;;22.90;99981.00;;;;2070657;28;20275;-55
2021/09/09 02:19:46;;;;;;;9.90;9.00;;;;;22.90;99984.00;;;;2064359;28;20302;-56
2021/09/09 02:20:47;;;;;;;11.00;10.07;;;;;22.90;99981.00;;;;2071476;28;20756;-56
2021/09/09 02:21:47;;;;;;;10.53;9.63;;;;;22.90;99989.00;;;;2071826;28;20210;-55
2021/09/09 02:22:48;;;;;;;10.20;9.40;;;;;22.90;99991.00;;;;2072036;28;20649;-55
2021/09/09 02:23:48;;;;;;;10.80;9.80;;;;;22.90;99981.00;;;;2071769;28;20210;-55
2021/09/09 02:24:48;;;;;;;10.47;9.57;;;;;22.90;99980.00;;;;2071464;28;20210;-55
2021/09/09 02:25:49;;;;;;;10.07;9.17;;;;;22.90;99975.00;;;;2071202;28;20709;-55
2021/09/09 02:26:49;;;;;;;10.50;9.70;;;;;22.90;99974.00;;;;2071390;28;22006;-54
2021/09/09 02:27:50;;;;;;;10.03;9.23;;;;;22.90;99976.00;;;;2070898;28;20230;-54
2021/09/09 02:28:50;;;;;;;10.23;9.30;;;;;22.90;99983.00;;;;2062611;28;20222;-55
2021/09/09 02:29:50;;;;;;;9.90;9.10;;;;;22.90;99985.00;;;;2060770;28;20226;-55
2021/09/09 02:30:51;;;;;;;10.30;9.40;;;;;22.90;99980.00;;;;2065662;28;20229;-56
2021/09/09 02:31:51;;;;;;;10.33;9.50;;;;;22.90;99979.00;;;;2071793;28;20214;-56
2021/09/09 02:32:51;;;;;;;10.30;9.40;;;;;22.90;99977.00;;;;2071805;28;20221;-55
2021/09/09 02:33:52;;;;;;;10.43;9.53;;;;;22.90;99969.00;;;;2064884;28;20214;-55
2021/09/09 02:34:52;;;;;;;10.87;9.97;;;;;22.90;99985.00;;;;2063731;28;20222;-55
2021/09/09 02:35:52;;;;;;;10.60;9.77;;;;;22.90;99973.00;;;;2063424;28;20214;-56
2021/09/09 02:36:53;;;;;;;9.97;9.17;;;;;22.90;99973.00;;;;2063550;28;20278;-54
2021/09/09 02:37:53;;;;;;;9.87;8.97;;;;;22.90;99975.00;;;;2063564;28;20703;-55
2021/09/09 02:38:53;;;;;;;9.77;9.07;;;;;22.90;99972.00;;;;2062511;28;20574;-55
2021/09/09 02:39:54;;;;;;;9.87;9.07;;;;;22.90;99979.00;;;;2065293;28;20274;-55
2021/09/09 02:40:54;;;;;;;10.80;10.00;;;;;22.90;99974.00;;;;2071888;28;20301;-55
2021/09/09 02:41:54;;;;;;;10.37;9.53;;;;;22.90;99976.00;;;;2071710;28;20210;-55
2021/09/09 02:42:55;;;;;;;10.77;9.87;;;;;22.90;99978.00;;;;2064637;28;20225;-56
2021/09/09 02:43:55;;;;;;;10.30;9.33;;;;;22.90;99973.00;;;;2063709;28;20683;-55
2021/09/09 02:44:55;;;;;;;9.27;8.53;;;;;22.90;99968.00;;;;2063412;28;20215;-55
2021/09/09 02:45:56;;;;;;;10.03;9.20;;;;;22.90;99981.00;;;;2064460;28;20270;-55
2021/09/09 02:46:56;;;;;;;9.33;8.53;;;;;22.90;99973.00;;;;2070613;28;20226;-56
2021/09/09 02:47:56;;;;;;;9.23;8.50;;;;;22.90;99978.00;;;;2063742;28;20226;-55
2021/09/09 02:48:57;;;;;;;10.80;9.53;;;;;22.90;99975.00;;;;2064619;28;20219;-55
2021/09/09 02:49:57;;;;;;;10.03;9.23;;;;;22.90;99976.00;;;;2071452;28;20666;-55
2021/09/09 02:50:57;;;;;;;10.30;9.50;;;;;22.90;99974.00;;;;2068567;28;20288;-55
2021/09/09 02:51:58;;;;;;;10.10;9.30;;;;;22.90;99973.00;;;;2063635;28;21084;-54
2021/09/09 02:52:58;;;;;;;10.37;9.37;;;;;22.90;99971.00;;;;2067604;28;20223;-55
2021/09/09 02:53:59;;;;;;;9.27;8.53;;;;;22.90;99984.00;;;;2063447;28;20222;-56
2021/09/09 02:54:59;;;;;;;10.83;9.83;;;;;22.90;99976.00;;;;2064201;28;20935;-55
2021/09/09 02:55:59;;;;;;;10.97;10.07;;;;;22.90;99971.00;;;;2066534;28;20618;-55
2021/09/09 02:57:00;;;;;;;11.10;10.20;;;;;22.90;99968.00;;;;2069135;28;20225;-55
2021/09/09 02:58:00;;;;;;;9.10;8.40;;;;;22.90;99972.00;;;;2069728;28;20218;-55
2021/09/09 02:59:00;;;;;;;10.23;9.43;;;;;22.90;99971.00;;;;2068994;28;20329;-54
2021/09/09 03:00:01;;;;;;;10.47;9.57;;;;;22.90;99966.00;;;;2063662;28;20583;-55
2021/09/09 03:01:01;;;;;;;10.57;9.57;;;;;22.90;99968.00;;;;2062172;28;20305;-55
2021/09/09 03:02:03;;;;;;;9.40;8.70;;;;;22.90;99966.00;;;;2062684;28;20222;-56
2021/09/09 03:03:03;;;;;;;10.80;9.80;;;;;22.90;99966.00;;;;2067866;28;20226;-56
2021/09/09 03:04:04;;;;;;;9.13;8.43;;;;;22.90;99963.00;;;;2071077;28;20210;-55
2021/09/09 03:05:05;;;;;;;9.70;8.90;;;;;22.90;99965.00;;;;2064662;28;20234;-56
2021/09/09 03:06:06;;;;;;;10.10;9.30;;;;;22.90;99964.00;;;;2062462;28;20219;-56
2021/09/09 03:07:06;;;;;;;10.67;9.87;;;;;22.70;99956.00;;;;2062352;28;20490;-58
2021/09/09 03:08:06;;;;;;;10.70;9.80;;;;;22.90;99959.00;;;;2062683;28;20458;-55
2021/09/09 03:09:07;;;;;;;9.67;8.87;;;;;22.90;99954.00;;;;2060862;28;20294;-56
2021/09/09 03:10:08;;;;;;;11.40;10.30;;;;;22.90;99960.00;;;;2062751;28;20211;-59
2021/09/09 03:11:08;;;;;;;10.20;9.40;;;;;22.90;99956.00;;;;2067886;28;20220;-55
2021/09/09 03:12:09;;;;;;;10.10;9.27;;;;;22.90;99962.00;;;;2071475;28;20458;-55
2021/09/09 03:13:09;;;;;;;10.20;9.30;;;;;22.90;99957.00;;;;2071579;28;20206;-55
2021/09/09 03:14:09;;;;;;;10.00;9.20;;;;;22.90;99961.00;;;;2071166;28;20277;-55
2021/09/09 03:15:10;;;;;;;10.20;9.40;;;;;22.90;99958.00;;;;2071302;28;20210;-56
2021/09/09 03:16:10;;;;;;;10.33;9.43;;;;;22.90;99957.00;;;;2071218;28;20218;-56
2021/09/09 03:17:11;;;;;;;10.57;9.67;;;;;22.90;99957.00;;;;2064508;28;20207;-56
2021/09/09 03:18:11;;;;;;;10.30;9.50;;;;;22.90;99951.00;;;;2063436;28;20222;-55
2021/09/09 03:19:11;;;;;;;10.10;9.30;;;;;22.90;99943.00;;;;2062127;28;20289;-55
2021/09/09 03:20:12;;;;;;;10.10;9.30;;;;;22.90;99942.00;;;;2063107;28;20211;-56
2021/09/09 03:21:12;;;;;;;10.53;9.63;;;;;22.90;99947.00;;;;2063441;28;20233;-57
2021/09/09 03:22:13;;;;;;;10.03;9.13;;;;;22.90;99944.00;;;;2063244;28;20233;-55
2021/09/09 03:23:13;;;;;;;9.97;9.17;;;;;22.90;99943.00;;;;2063571;28;20273;-55
2021/09/09 03:24:15;;;;;;;9.60;8.80;;;;;22.90;99948.00;;;;2063455;28;20207;-55
2021/09/09 03:25:16;;;;;;;9.70;9.00;;;;;22.90;99946.00;;;;2063411;28;20615;-55
2021/09/09 03:26:17;;;;;;;10.10;9.30;;;;;22.90;99953.00;;;;2063389;28;20218;-56
2021/09/09 03:27:17;;;;;;;9.93;9.13;;;;;22.90;99956.00;;;;2063479;28;20564;-55
2021/09/09 03:28:17;;;;;;;10.00;9.20;;;;;22.90;99949.00;;;;2067834;28;20214;-55
2021/09/09 03:29:18;;;;;;;9.20;8.50;;;;;22.90;99951.00;;;;2070375;28;20210;-56
2021/09/09 03:30:18;;;;;;;9.93;9.23;;;;;22.90;99948.00;;;;2071271;28;20214;-56
2021/09/09 03:31:18;;;;;;;9.37;8.67;;;;;22.90;99945.00;;;;2071328;28;20210;-56
2021/09/09 03:32:19;;;;;;;10.33;9.43;;;;;22.90;99944.00;;;;2071208;28;20206;-54
2021/09/09 03:33:19;;;;;;;10.47;9.57;;;;;22.80;99944.00;;;;2068100;28;20699;-55
2021/09/09 03:34:19;;;;;;;10.87;9.97;;;;;22.80;99940.00;;;;2063285;28;20391;-56
2021/09/09 03:35:20;;;;;;;9.30;8.43;;;;;22.80;99942.00;;;;2063095;28;20305;-57
2021/09/09 03:36:20;;;;;;;9.87;9.07;;;;;22.90;99942.00;;;;2066498;28;20219;-55
2021/09/09 03:37:21;;;;;;;10.10;9.20;;;;;22.90;99939.00;;;;2062489;28;20638;-56
2021/09/09 03:38:21;;;;;;;9.50;8.80;;;;;22.80;99940.00;;;;2062949;28;20215;-55
2021/09/09 03:39:21;;;;;;;10.80;9.90;;;;;22.80;99945.00;;;;2062062;28;20707;-55
2021/09/09 03:40:22;;;;;;;9.60;8.73;;;;;22.80;99950.00;;;;2063141;28;20623;-55
2021/09/09 03:41:22;;;;;;;9.23;8.50;;;;;22.90;99943.00;;;;2063250;28;20561;-54
2021/09/09 03:42:22;;;;;;;9.97;9.17;;;;;22.80;99944.00;;;;2063281;28;20207;-55
2021/09/09 03:43:23;;;;;;;10.67;9.87;;;;;22.90;99944.00;;;;2062736;28;20218;-55
2021/09/09 03:44:23;;;;;;;10.17;9.37;;;;;22.80;99936.00;;;;2063288;28;20265;-56
2021/09/09 03:45:23;;;;;;;9.90;9.10;;;;;22.80;99937.00;;;;2063329;28;20290;-56
2021/09/09 03:46:24;;;;;;;9.70;8.90;;;;;22.80;99940.00;;;;2063380;28;20207;-55
2021/09/09 03:47:24;;;;;;;9.07;8.37;;;;;22.80;99941.00;;;;2063071;28;20203;-55
2021/09/09 03:48:24;;;;;;;10.03;9.13;;;;;22.80;99946.00;;;;2063112;28;20215;-55
2021/09/09 03:49:25;;;;;;;9.40;8.70;;;;;22.80;99945.00;;;;2068094;28;20210;-55
2021/09/09 03:50:25;;;;;;;9.70;8.90;;;;;22.80;99953.00;;;;2070907;28;20926;-55
2021/09/09 03:51:25;;;;;;;9.53;8.73;;;;;22.80;99946.00;;;;2070885;28;20198;-56
2021/09/09 03:52:26;;;;;;;9.73;8.93;;;;;22.80;99952.00;;;;2067848;28;20219;-55
2021/09/09 03:53:26;;;;;;;10.30;9.43;;;;;22.80;99948.00;;;;2067148;28;20853;-55
2021/09/09 03:54:26;;;;;;;10.07;9.27;;;;;22.80;99948.00;;;;2071096;28;20571;-55
2021/09/09 03:55:27;;;;;;;9.33;8.63;;;;;22.80;99956.00;;;;2071254;28;20209;-56
2021/09/09 03:56:27;;;;;;;9.47;8.67;;;;;22.80;99953.00;;;;2067528;28;20214;-56
2021/09/09 03:57:27;;;;;;;9.23;8.53;;;;;22.80;99942.00;;;;2071138;28;20687;-56
2021/09/09 03:58:28;;;;;;;10.10;9.30;;;;;22.80;99956.00;;;;2071195;28;20210;-55
2021/09/09 03:59:28;;;;;;;9.37;8.67;;;;;22.80;99955.00;;;;2069861;28;20718;-56
2021/09/09 04:00:28;;;;;;;10.33;9.43;;;;;22.80;99949.00;;;;2063959;28;20215;-56
2021/09/09 04:01:29;;;;;;;9.73;8.93;;;;;22.80;99946.00;;;;2064892;28;20256;-57
2021/09/09 04:02:29;;;;;;;8.27;7.67;;;;;22.80;99952.00;;;;2070726;28;20210;-55
2021/09/09 04:03:29;;;;;;;9.93;9.13;;;;;22.80;99959.00;;;;2070814;28;20210;-56
2021/09/09 04:04:30;;;;;;;9.33;8.63;;;;;22.80;99958.00;;;;2063146;28;20218;-55
2021/09/09 04:05:30;;;;;;;9.80;9.00;;;;;22.80;99960.00;;;;2064203;28;20284;-56
2021/09/09 04:06:31;;;;;;;11.07;10.07;;;;;22.80;99954.00;;;;2070584;28;20591;-55
2021/09/09 04:07:31;;;;;;;9.63;8.83;;;;;22.80;99951.00;;;;2062935;28;20672;-54
2021/09/09 04:08:31;;;;;;;10.30;9.50;;;;;22.80;99954.00;;;;2062961;28;20207;-55
2021/09/09 04:09:32;;;;;;;9.60;8.73;;;;;22.80;99953.00;;;;2061413;28;20211;-56
2021/09/09 04:10:33;;;;;;;11.10;10.10;;;;;22.80;99963.00;;;;2062546;28;20221;-56
2021/09/09 04:11:35;;;;;;;10.45;9.55;;;;;22.80;99953.00;;;;2062906;28;20533;-55
2021/09/09 04:12:36;;;;;;;10.68;9.80;;;;;22.80;99948.00;;;;2062838;28;20311;-56
2021/09/09 04:13:37;;;;;;;9.77;8.97;;;;;22.80;99952.00;;;;2063184;28;20226;-54
2021/09/09 04:14:37;;;;;;;10.77;9.38;;;;;22.70;99953.00;;;;2062751;28;20246;-56
2021/09/09 04:15:39;;;;;;;10.63;9.77;;;;;22.60;99945.00;;;;2062873;28;20278;-55
2021/09/09 04:16:39;;;;;;;10.57;9.68;;;;;22.70;99952.00;;;;2062634;28;20272;-55
2021/09/09 04:17:40;;;;;;;10.37;9.47;;;;;22.70;99954.00;;;;2070280;28;20284;-56
2021/09/09 04:18:40;;;;;;;9.53;8.83;;;;;22.80;99959.00;;;;2066879;28;20765;-56
2021/09/09 04:19:41;;;;;;;10.57;9.67;;;;;22.80;99954.00;;;;2066495;28;20226;-55
2021/09/09 04:20:41;;;;;;;10.67;9.77;;;;;22.90;99944.00;;;;2063758;28;20582;-55
2021/09/09 04:21:41;;;;;;;16.57;9.83;;;;;22.80;99950.00;;;;2070686;28;20237;-55
2021/09/09 04:22:42;;;;;;;10.17;9.27;;;;;22.80;99954.00;;;;2070848;28;20276;-55
2021/09/09 04:23:42;;;;;;;10.07;9.17;;;;;22.80;99952.00;;;;2068640;28;20221;-56
2021/09/09 04:24:42;;;;;;;9.80;9.03;;;;;22.80;99954.00;;;;2063011;28;20223;-55
2021/09/09 04:25:43;;;;;;;9.40;8.70;;;;;22.80;99949.00;;;;2069743;28;20210;-55
2021/09/09 04:26:43;;;;;;;9.47;8.77;;;;;22.90;99947.00;;;;2070984;28;20301;-56
2021/09/09 04:27:43;;;;;;;8.80;8.10;;;;;22.90;99950.00;;;;2069914;28;20301;-55
2021/09/09 04:28:44;;;;;;;10.17;9.27;;;;;22.90;99946.00;;;;2070375;28;20217;-55
2021/09/09 04:29:44;;;;;;;9.73;8.83;;;;;22.90;99946.00;;;;2070496;28;20218;-56
2021/09/09 04:30:44;;;;;;;9.83;9.00;;;;;22.90;99948.00;;;;2070354;28;20301;-55
2021/09/09 04:31:45;;;;;;;10.60;9.67;;;;;22.80;99943.00;;;;2070203;28;20226;-56
2021/09/09 04:32:45;;;;;;;10.20;9.23;;;;;22.90;99941.00;;;;2070824;28;20394;-55
2021/09/09 04:33:46;;;;;;;9.63;8.83;;;;;22.80;99943.00;;;;2070891;28;20842;-56
2021/09/09 04:34:46;;;;;;;10.90;9.90;;;;;22.80;99939.00;;;;2070801;28;20225;-55
2021/09/09 04:35:46;;;;;;;10.00;9.10;;;;;22.80;99936.00;;;;2070677;28;20277;-55
2021/09/09 04:36:47;;;;;;;10.00;9.20;;;;;22.80;99936.00;;;;2067981;28;20214;-55
2021/09/09 04:37:47;;;;;;;10.50;9.60;;;;;22.80;99929.00;;;;2062442;28;20210;-55
2021/09/09 04:38:48;;;;;;;10.67;9.57;;;;;22.90;99933.00;;;;2061986;28;20214;-55
2021/09/09 04:39:48;;;;;;;10.10;9.20;;;;;22.90;99937.00;;;;2062365;28;20222;-56
2021/09/09 04:40:48;;;;;;;9.13;8.43;;;;;22.80;99937.00;;;;2062550;28;20225;-55
2021/09/09 04:41:49;;;;;;;10.20;9.30;;;;;22.90;99931.00;;;;2065162;28;20222;-55
2021/09/09 04:42:49;;;;;;;11.23;9.80;;;;;22.90;99937.00;;;;2070545;28;20206;-57
2021/09/09 04:43:50;;;;;;;10.43;9.60;;;;;22.90;99920.00;;;;2070710;28;20217;-57
2021/09/09 04:44:50;;;;;;;11.53;10.33;;;;;22.90;99929.00;;;;2070809;28;20210;-56
2021/09/09 04:45:50;;;;;;;10.57;9.67;;;;;22.90;99926.00;;;;2070439;28;20211;-57
2021/09/09 04:46:51;;;;;;;10.33;9.53;;;;;22.90;99925.00;;;;2070709;28;20225;-56
2021/09/09 04:47:52;;;;;;;10.30;9.30;;;;;22.90;99923.00;;;;2070554;28;20268;-55
2021/09/09 04:48:52;;;;;;;10.80;9.80;;;;;22.90;99919.00;;;;2069576;28;20217;-55
2021/09/09 04:49:52;;;;;;;10.90;9.93;;;;;22.80;99926.00;;;;2059279;28;20753;-55
2021/09/09 04:50:53;;;;;;;10.27;9.40;;;;;22.90;99927.00;;;;2059390;28;20222;-55
2021/09/09 04:51:53;;;;;;;10.80;9.90;;;;;22.90;99928.00;;;;2060941;28;20294;-55
2021/09/09 04:52:54;;;;;;;10.77;9.87;;;;;22.90;99929.00;;;;2062086;28;20622;-55
2021/09/09 04:53:54;;;;;;;9.80;9.00;;;;;22.80;99928.00;;;;2062222;28;20217;-55
2021/09/09 04:54:54;;;;;;;10.50;9.50;;;;;22.90;99935.00;;;;2070206;28;20214;-55
2021/09/09 04:55:55;;;;;;;10.80;9.90;;;;;22.90;99937.00;;;;2070132;28;20213;-55
2021/09/09 04:56:55;;;;;;;10.80;9.90;;;;;22.90;99936.00;;;;2070122;28;20313;-55
2021/09/09 04:57:56;;;;;;;10.40;9.60;;;;;22.90;99939.00;;;;2070398;28;20206;-55